Terminal Aerodrome Forecast
Issued by NWS

Home | Current Version | Previous Version | Text Only | Print | Product List | Glossary Off
Versions: 1 2 3 4 5 6 7 8 9 10 11 12 13 14 15 16

000
FTUS43 KIWX 271121
TAFSBN
TAF
KSBN 271121Z 2712/2812 21007KT P6SM SCT090
     FM272300 16006KT P6SM BKN090
     FM280800 14008KT P6SM BKN020
     FM281000 15010KT 4SM -SHRA OVC010=

USA.gov is the U.S. government's official web portal to all federal, state and local government web resources and services.